sensor_id;sensor_type;location;lat;lon;timestamp;pressure;altitude;pressure_sealevel;temperature;humidity
70009;BME280;59542;37.950;-122.338;2023-03-25T00:02:21;102707.38;;;13.93;42.96
70009;BME280;59542;37.950;-122.338;2023-03-25T00:04:51;102699.78;;;13.97;43.16
70009;BME280;59542;37.950;-122.338;2023-03-25T00:07:19;102689.84;;;13.97;43.62
70009;BME280;59542;37.950;-122.338;2023-03-25T00:09:46;102699.22;;;14.02;44.33
70009;BME280;59542;37.950;-122.338;2023-03-25T00:12:14;102694.09;;;13.92;44.81
70009;BME280;59542;37.950;-122.338;2023-03-25T00:14:42;102699.09;;;13.80;45.11
70009;BME280;59542;37.950;-122.338;2023-03-25T00:17:08;102705.63;;;13.63;44.92
70009;BME280;59542;37.950;-122.338;2023-03-25T00:19:35;102706.19;;;13.35;45.65
70009;BME280;59542;37.950;-122.338;2023-03-25T00:22:02;102697.09;;;13.36;46.01
70009;BME280;59542;37.950;-122.338;2023-03-25T00:24:28;102702.13;;;13.39;46.31
70009;BME280;59542;37.950;-122.338;2023-03-25T00:26:54;102710.34;;;13.38;45.46
70009;BME280;59542;37.950;-122.338;2023-03-25T00:29:20;102715.56;;;13.08;46.55
70009;BME280;59542;37.950;-122.338;2023-03-25T00:31:46;102713.56;;;13.02;46.62
70009;BME280;59542;37.950;-122.338;2023-03-25T00:34:13;102712.84;;;13.16;47.09
70009;BME280;59542;37.950;-122.338;2023-03-25T00:36:40;102711.69;;;13.11;47.38
70009;BME280;59542;37.950;-122.338;2023-03-25T00:39:08;102713.75;;;13.01;48.04
70009;BME280;59542;37.950;-122.338;2023-03-25T00:41:35;102712.00;;;12.85;48.25
70009;BME280;59542;37.950;-122.338;2023-03-25T00:44:03;102719.75;;;12.80;48.37
70009;BME280;59542;37.950;-122.338;2023-03-25T00:46:30;102709.94;;;12.56;48.63
70009;BME280;59542;37.950;-122.338;2023-03-25T00:48:57;102705.59;;;12.47;49.81
70009;BME280;59542;37.950;-122.338;2023-03-25T00:51:25;102714.03;;;12.35;49.96
70009;BME280;59542;37.950;-122.338;2023-03-25T00:53:54;102713.50;;;12.32;51.13
70009;BME280;59542;37.950;-122.338;2023-03-25T00:56:21;102720.41;;;12.34;49.56
70009;BME280;59542;37.950;-122.338;2023-03-25T00:58:47;102721.56;;;12.32;49.84
70009;BME280;59542;37.950;-122.338;2023-03-25T01:03:00;102715.56;;;12.13;50.51
70009;BME280;59542;37.950;-122.338;2023-03-25T01:05:29;102699.50;;;12.05;51.57
70009;BME280;59542;37.950;-122.338;2023-03-25T01:07:55;102714.91;;;12.11;51.38
70009;BME280;59542;37.950;-122.338;2023-03-25T01:10:22;102703.69;;;11.92;51.95
70009;BME280;59542;37.950;-122.338;2023-03-25T01:12:48;102700.97;;;11.75;51.73
70009;BME280;59542;37.950;-122.338;2023-03-25T01:15:15;102706.53;;;11.57;52.08
70009;BME280;59542;37.950;-122.338;2023-03-25T01:17:41;102697.16;;;11.61;52.01
70009;BME280;59542;37.950;-122.338;2023-03-25T01:20:07;102707.50;;;11.48;52.51
70009;BME280;59542;37.950;-122.338;2023-03-25T01:22:34;102717.06;;;11.43;52.62
70009;BME280;59542;37.950;-122.338;2023-03-25T01:25:01;102715.53;;;11.32;53.02
70009;BME280;59542;37.950;-122.338;2023-03-25T01:27:27;102719.06;;;11.24;53.32
70009;BME280;59542;37.950;-122.338;2023-03-25T01:29:55;102712.34;;;11.20;53.65
70009;BME280;59542;37.950;-122.338;2023-03-25T01:32:22;102712.19;;;11.22;53.77
70009;BME280;59542;37.950;-122.338;2023-03-25T01:34:48;102720.03;;;11.15;54.17
70009;BME280;59542;37.950;-122.338;2023-03-25T01:37:15;102717.50;;;11.05;53.84
70009;BME280;59542;37.950;-122.338;2023-03-25T01:39:42;102725.16;;;10.92;54.93
70009;BME280;59542;37.950;-122.338;2023-03-25T01:42:09;102719.59;;;10.86;55.11
70009;BME280;59542;37.950;-122.338;2023-03-25T01:47:03;102716.75;;;10.87;55.60
70009;BME280;59542;37.950;-122.338;2023-03-25T01:49:42;102721.28;;;10.87;56.34
70009;BME280;59542;37.950;-122.338;2023-03-25T01:52:20;102728.31;;;10.88;56.34
70009;BME280;59542;37.950;-122.338;2023-03-25T01:54:50;102720.56;;;10.76;56.82
70009;BME280;59542;37.950;-122.338;2023-03-25T01:57:19;102720.03;;;10.65;57.53
70009;BME280;59542;37.950;-122.338;2023-03-25T01:59:47;102722.38;;;10.68;57.23
70009;BME280;59542;37.950;-122.338;2023-03-25T02:02:16;102738.25;;;10.61;57.77
70009;BME280;59542;37.950;-122.338;2023-03-25T02:04:48;102729.22;;;10.62;57.13
70009;BME280;59542;37.950;-122.338;2023-03-25T02:07:27;102730.81;;;10.47;58.08
70009;BME280;59542;37.950;-122.338;2023-03-25T02:10:03;102708.50;;;10.38;57.45
70009;BME280;59542;37.950;-122.338;2023-03-25T02:12:29;102713.34;;;10.35;58.07
70009;BME280;59542;37.950;-122.338;2023-03-25T02:14:57;102710.31;;;10.29;58.09
70009;BME280;59542;37.950;-122.338;2023-03-25T02:26:55;102717.91;;;10.16;58.16
70009;BME280;59542;37.950;-122.338;2023-03-25T02:38:18;102717.97;;;10.24;58.28
70009;BME280;59542;37.950;-122.338;2023-03-25T02:40:56;102714.81;;;10.29;56.92
70009;BME280;59542;37.950;-122.338;2023-03-25T02:43:31;102712.38;;;10.18;56.55
70009;BME280;59542;37.950;-122.338;2023-03-25T02:46:04;102711.28;;;10.02;57.73
70009;BME280;59542;37.950;-122.338;2023-03-25T02:51:31;102708.13;;;10.07;56.44
70009;BME280;59542;37.950;-122.338;2023-03-25T02:54:05;102706.19;;;9.91;54.56
70009;BME280;59542;37.950;-122.338;2023-03-25T02:56:34;102711.16;;;9.86;53.83
70009;BME280;59542;37.950;-122.338;2023-03-25T02:59:02;102720.72;;;9.71;53.64
70009;BME280;59542;37.950;-122.338;2023-03-25T03:01:29;102730.19;;;9.65;53.92
70009;BME280;59542;37.950;-122.338;2023-03-25T03:03:59;102728.06;;;9.51;54.54
70009;BME280;59542;37.950;-122.338;2023-03-25T03:06:26;102719.97;;;9.43;55.45
70009;BME280;59542;37.950;-122.338;2023-03-25T03:17:11;102709.00;;;9.01;58.47
70009;BME280;59542;37.950;-122.338;2023-03-25T03:19:52;102711.81;;;8.99;58.50
70009;BME280;59542;37.950;-122.338;2023-03-25T03:22:36;102699.53;;;8.88;59.49
70009;BME280;59542;37.950;-122.338;2023-03-25T03:27:53;102701.72;;;8.93;59.20
70009;BME280;59542;37.950;-122.338;2023-03-25T03:30:25;102703.16;;;8.87;59.38
70009;BME280;59542;37.950;-122.338;2023-03-25T03:32:55;102706.25;;;8.92;59.38
70009;BME280;59542;37.950;-122.338;2023-03-25T03:35:32;102712.81;;;8.98;59.06
70009;BME280;59542;37.950;-122.338;2023-03-25T03:38:10;102715.72;;;8.77;59.74
70009;BME280;59542;37.950;-122.338;2023-03-25T03:40:41;102728.75;;;8.90;59.61
70009;BME280;59542;37.950;-122.338;2023-03-25T03:43:14;102741.72;;;8.85;59.68
70009;BME280;59542;37.950;-122.338;2023-03-25T03:45:46;102742.34;;;8.69;60.99
70009;BME280;59542;37.950;-122.338;2023-03-25T03:48:20;102745.03;;;8.59;60.71
70009;BME280;59542;37.950;-122.338;2023-03-25T03:51:02;102744.47;;;8.93;60.36
70009;BME280;59542;37.950;-122.338;2023-03-25T03:53:36;102742.09;;;9.17;58.90
70009;BME280;59542;37.950;-122.338;2023-03-25T03:56:10;102736.81;;;9.08;59.42
70009;BME280;59542;37.950;-122.338;2023-03-25T03:58:40;102749.97;;;9.37;58.94
70009;BME280;59542;37.950;-122.338;2023-03-25T04:01:15;102739.50;;;9.25;59.15
70009;BME280;59542;37.950;-122.338;2023-03-25T04:03:51;102742.31;;;9.24;59.14
70009;BME280;59542;37.950;-122.338;2023-03-25T04:06:53;102747.72;;;9.14;58.75
70009;BME280;59542;37.950;-122.338;2023-03-25T04:09:23;102739.22;;;9.29;58.41
70009;BME280;59542;37.950;-122.338;2023-03-25T04:12:01;102750.34;;;9.24;58.48
70009;BME280;59542;37.950;-122.338;2023-03-25T04:14:28;102748.28;;;9.36;57.75
70009;BME280;59542;37.950;-122.338;2023-03-25T04:16:55;102743.44;;;9.04;59.16
70009;BME280;59542;37.950;-122.338;2023-03-25T04:19:21;102739.28;;;8.91;59.06
70009;BME280;59542;37.950;-122.338;2023-03-25T04:21:48;102737.56;;;9.00;58.51
70009;BME280;59542;37.950;-122.338;2023-03-25T04:24:14;102733.69;;;9.12;58.39
70009;BME280;59542;37.950;-122.338;2023-03-25T04:26:45;102737.75;;;9.16;57.49
70009;BME280;59542;37.950;-122.338;2023-03-25T04:29:12;102733.56;;;9.04;58.29
70009;BME280;59542;37.950;-122.338;2023-03-25T04:31:38;102733.75;;;9.03;58.55
70009;BME280;59542;37.950;-122.338;2023-03-25T04:34:12;102737.47;;;9.10;58.18
70009;BME280;59542;37.950;-122.338;2023-03-25T04:36:41;102734.88;;;9.00;57.80
70009;BME280;59542;37.950;-122.338;2023-03-25T04:39:11;102744.06;;;8.88;57.61
70009;BME280;59542;37.950;-122.338;2023-03-25T04:41:38;102735.97;;;8.80;57.81
70009;BME280;59542;37.950;-122.338;2023-03-25T04:44:05;102732.22;;;8.72;57.62
70009;BME280;59542;37.950;-122.338;2023-03-25T04:46:32;102729.38;;;8.74;57.18
70009;BME280;59542;37.950;-122.338;2023-03-25T04:49:02;102733.97;;;8.82;56.99
70009;BME280;59542;37.950;-122.338;2023-03-25T04:51:31;102724.72;;;8.76;56.79
70009;BME280;59542;37.950;-122.338;2023-03-25T04:53:58;102722.91;;;8.77;57.20
70009;BME280;59542;37.950;-122.338;2023-03-25T04:56:24;102724.66;;;8.68;57.11
70009;BME280;59542;37.950;-122.338;2023-03-25T04:58:50;102728.72;;;8.72;56.75
70009;BME280;59542;37.950;-122.338;2023-03-25T05:01:27;102735.84;;;8.71;56.77
70009;BME280;59542;37.950;-122.338;2023-03-25T05:04:01;102730.22;;;8.75;56.42
70009;BME280;59542;37.950;-122.338;2023-03-25T05:06:34;102738.28;;;8.65;56.13
70009;BME280;59542;37.950;-122.338;2023-03-25T05:09:01;102731.09;;;8.65;54.90
70009;BME280;59542;37.950;-122.338;2023-03-25T05:11:30;102736.16;;;8.68;54.92
70009;BME280;59542;37.950;-122.338;2023-03-25T05:13:57;102742.19;;;8.70;54.51
70009;BME280;59542;37.950;-122.338;2023-03-25T05:16:23;102744.56;;;8.73;54.54
70009;BME280;59542;37.950;-122.338;2023-03-25T05:18:49;102747.94;;;8.76;54.09
70009;BME280;59542;37.950;-122.338;2023-03-25T05:21:16;102736.16;;;8.68;55.45
70009;BME280;59542;37.950;-122.338;2023-03-25T05:23:42;102746.41;;;8.73;54.99
70009;BME280;59542;37.950;-122.338;2023-03-25T05:26:09;102748.09;;;8.74;55.33
70009;BME280;59542;37.950;-122.338;2023-03-25T05:28:37;102746.09;;;8.76;55.82
70009;BME280;59542;37.950;-122.338;2023-03-25T05:31:04;102741.25;;;8.62;55.22
70009;BME280;59542;37.950;-122.338;2023-03-25T05:33:37;102732.53;;;8.60;55.15
70009;BME280;59542;37.950;-122.338;2023-03-25T05:36:11;102739.25;;;8.64;54.57
70009;BME280;59542;37.950;-122.338;2023-03-25T05:38:38;102741.44;;;8.51;55.30
70009;BME280;59542;37.950;-122.338;2023-03-25T05:41:12;102727.94;;;8.52;54.92
70009;BME280;59542;37.950;-122.338;2023-03-25T05:43:45;102728.97;;;8.41;55.65
70009;BME280;59542;37.950;-122.338;2023-03-25T05:46:13;102722.75;;;8.51;55.96
70009;BME280;59542;37.950;-122.338;2023-03-25T05:48:40;102718.78;;;8.55;55.38
70009;BME280;59542;37.950;-122.338;2023-03-25T05:51:17;102714.31;;;8.55;54.24
70009;BME280;59542;37.950;-122.338;2023-03-25T05:53:47;102715.59;;;8.51;55.11
70009;BME280;59542;37.950;-122.338;2023-03-25T05:56:17;102711.25;;;8.31;56.13
70009;BME280;59542;37.950;-122.338;2023-03-25T05:58:47;102718.28;;;8.32;55.55
70009;BME280;59542;37.950;-122.338;2023-03-25T06:01:15;102719.25;;;8.31;55.83
70009;BME280;59542;37.950;-122.338;2023-03-25T06:03:43;102734.72;;;8.37;55.33
70009;BME280;59542;37.950;-122.338;2023-03-25T06:06:10;102731.94;;;8.38;55.00
70009;BME280;59542;37.950;-122.338;2023-03-25T06:08:49;102730.09;;;8.39;55.39
70009;BME280;59542;37.950;-122.338;2023-03-25T06:11:17;102717.72;;;8.38;55.48
70009;BME280;59542;37.950;-122.338;2023-03-25T06:13:44;102726.72;;;8.37;55.61
70009;BME280;59542;37.950;-122.338;2023-03-25T06:16:18;102724.44;;;8.32;55.61
70009;BME280;59542;37.950;-122.338;2023-03-25T06:18:49;102723.78;;;8.20;56.41
70009;BME280;59542;37.950;-122.338;2023-03-25T06:21:21;102721.50;;;8.35;55.81
70009;BME280;59542;37.950;-122.338;2023-03-25T06:23:48;102718.16;;;8.24;56.52
70009;BME280;59542;37.950;-122.338;2023-03-25T06:26:20;102712.66;;;8.44;56.42
70009;BME280;59542;37.950;-122.338;2023-03-25T06:28:46;102709.03;;;8.36;56.25
70009;BME280;59542;37.950;-122.338;2023-03-25T06:31:18;102711.84;;;8.25;56.86
70009;BME280;59542;37.950;-122.338;2023-03-25T06:33:46;102715.59;;;8.32;56.42
70009;BME280;59542;37.950;-122.338;2023-03-25T06:36:14;102707.75;;;8.40;55.88
70009;BME280;59542;37.950;-122.338;2023-03-25T06:38:47;102701.97;;;8.35;55.88
70009;BME280;59542;37.950;-122.338;2023-03-25T06:41:15;102700.88;;;8.37;56.54
70009;BME280;59542;37.950;-122.338;2023-03-25T06:43:45;102701.59;;;8.39;55.81
70009;BME280;59542;37.950;-122.338;2023-03-25T06:46:12;102702.41;;;8.30;56.37
70009;BME280;59542;37.950;-122.338;2023-03-25T06:48:38;102696.53;;;8.27;56.02
70009;BME280;59542;37.950;-122.338;2023-03-25T06:51:05;102692.88;;;8.37;56.08
70009;BME280;59542;37.950;-122.338;2023-03-25T06:53:31;102688.56;;;8.17;56.85
70009;BME280;59542;37.950;-122.338;2023-03-25T06:55:57;102689.25;;;8.19;57.18
70009;BME280;59542;37.950;-122.338;2023-03-25T06:58:24;102690.94;;;8.20;57.11
70009;BME280;59542;37.950;-122.338;2023-03-25T07:00:53;102705.28;;;8.09;57.99
70009;BME280;59542;37.950;-122.338;2023-03-25T07:03:20;102702.03;;;8.15;57.36
70009;BME280;59542;37.950;-122.338;2023-03-25T07:05:49;102695.59;;;8.08;57.35
70009;BME280;59542;37.950;-122.338;2023-03-25T07:08:15;102699.78;;;8.20;56.93
70009;BME280;59542;37.950;-122.338;2023-03-25T07:10:41;102699.25;;;8.07;57.46
70009;BME280;59542;37.950;-122.338;2023-03-25T07:13:08;102705.31;;;8.00;58.07
70009;BME280;59542;37.950;-122.338;2023-03-25T07:15:35;102690.41;;;8.07;57.37
70009;BME280;59542;37.950;-122.338;2023-03-25T07:18:01;102702.06;;;8.06;58.03
70009;BME280;59542;37.950;-122.338;2023-03-25T07:20:27;102699.38;;;8.15;57.38
70009;BME280;59542;37.950;-122.338;2023-03-25T07:22:54;102702.50;;;8.11;57.42
70009;BME280;59542;37.950;-122.338;2023-03-25T07:25:21;102691.34;;;8.15;57.15
70009;BME280;59542;37.950;-122.338;2023-03-25T07:27:47;102685.25;;;7.96;57.76
70009;BME280;59542;37.950;-122.338;2023-03-25T07:30:14;102685.66;;;8.01;57.28
70009;BME280;59542;37.950;-122.338;2023-03-25T07:32:40;102684.16;;;7.88;57.51
70009;BME280;59542;37.950;-122.338;2023-03-25T07:35:06;102692.69;;;7.92;57.94
70009;BME280;59542;37.950;-122.338;2023-03-25T07:37:34;102701.25;;;7.96;58.33
70009;BME280;59542;37.950;-122.338;2023-03-25T07:40:00;102693.25;;;7.86;58.45
70009;BME280;59542;37.950;-122.338;2023-03-25T07:42:27;102698.16;;;8.00;57.99
70009;BME280;59542;37.950;-122.338;2023-03-25T07:44:53;102698.75;;;7.84;58.32
70009;BME280;59542;37.950;-122.338;2023-03-25T07:47:19;102702.34;;;7.93;58.08
70009;BME280;59542;37.950;-122.338;2023-03-25T07:49:45;102689.88;;;7.93;57.46
70009;BME280;59542;37.950;-122.338;2023-03-25T07:52:12;102682.59;;;7.86;57.57
70009;BME280;59542;37.950;-122.338;2023-03-25T07:54:38;102677.84;;;7.80;57.67
70009;BME280;59542;37.950;-122.338;2023-03-25T07:57:04;102671.25;;;7.84;57.78
70009;BME280;59542;37.950;-122.338;2023-03-25T07:59:31;102677.94;;;7.88;57.49
70009;BME280;59542;37.950;-122.338;2023-03-25T08:01:57;102671.50;;;7.81;58.08
70009;BME280;59542;37.950;-122.338;2023-03-25T08:04:23;102675.84;;;7.82;58.10
70009;BME280;59542;37.950;-122.338;2023-03-25T08:06:49;102671.09;;;7.76;57.17
70009;BME280;59542;37.950;-122.338;2023-03-25T08:09:16;102669.28;;;7.76;57.20
70009;BME280;59542;37.950;-122.338;2023-03-25T08:11:42;102654.41;;;7.74;57.55
70009;BME280;59542;37.950;-122.338;2023-03-25T08:14:08;102660.28;;;7.77;57.62
70009;BME280;59542;37.950;-122.338;2023-03-25T08:16:35;102656.81;;;7.57;58.70
70009;BME280;59542;37.950;-122.338;2023-03-25T08:19:01;102657.50;;;7.69;58.10
70009;BME280;59542;37.950;-122.338;2023-03-25T08:21:27;102654.72;;;7.61;57.96
70009;BME280;59542;37.950;-122.338;2023-03-25T08:23:55;102662.28;;;7.65;58.57
70009;BME280;59542;37.950;-122.338;2023-03-25T08:26:33;102664.25;;;7.54;58.66
70009;BME280;59542;37.950;-122.338;2023-03-25T08:29:01;102663.25;;;7.55;59.03
70009;BME280;59542;37.950;-122.338;2023-03-25T08:31:29;102660.91;;;7.61;57.85
70009;BME280;59542;37.950;-122.338;2023-03-25T08:34:01;102647.56;;;7.61;57.56
70009;BME280;59542;37.950;-122.338;2023-03-25T08:36:28;102660.47;;;7.56;57.89
70009;BME280;59542;37.950;-122.338;2023-03-25T08:38:54;102660.59;;;7.55;57.98
70009;BME280;59542;37.950;-122.338;2023-03-25T08:41:21;102651.91;;;7.53;57.96
70009;BME280;59542;37.950;-122.338;2023-03-25T08:43:48;102654.44;;;7.54;58.52
70009;BME280;59542;37.950;-122.338;2023-03-25T08:46:15;102651.06;;;7.52;57.95
70009;BME280;59542;37.950;-122.338;2023-03-25T08:48:41;102661.31;;;7.47;58.14
70009;BME280;59542;37.950;-122.338;2023-03-25T08:51:08;102655.56;;;7.52;58.22
70009;BME280;59542;37.950;-122.338;2023-03-25T08:53:35;102651.66;;;7.56;57.71
70009;BME280;59542;37.950;-122.338;2023-03-25T08:56:01;102649.94;;;7.55;58.26
70009;BME280;59542;37.950;-122.338;2023-03-25T08:58:28;102648.00;;;7.47;58.83
70009;BME280;59542;37.950;-122.338;2023-03-25T09:00:55;102647.16;;;7.47;57.67
70009;BME280;59542;37.950;-122.338;2023-03-25T09:03:22;102648.28;;;7.44;57.96
70009;BME280;59542;37.950;-122.338;2023-03-25T09:05:49;102642.97;;;7.44;58.57
70009;BME280;59542;37.950;-122.338;2023-03-25T09:08:16;102643.66;;;7.46;58.44
70009;BME280;59542;37.950;-122.338;2023-03-25T09:10:42;102643.81;;;7.35;58.70
70009;BME280;59542;37.950;-122.338;2023-03-25T09:13:08;102644.06;;;7.32;59.06
70009;BME280;59542;37.950;-122.338;2023-03-25T09:15:35;102644.38;;;7.38;58.85
70009;BME280;59542;37.950;-122.338;2023-03-25T09:18:02;102638.75;;;7.32;58.54
70009;BME280;59542;37.950;-122.338;2023-03-25T09:20:28;102645.31;;;7.37;58.40
70009;BME280;59542;37.950;-122.338;2023-03-25T09:22:54;102643.09;;;7.33;58.58
70009;BME280;59542;37.950;-122.338;2023-03-25T09:25:20;102636.78;;;7.34;59.09
70009;BME280;59542;37.950;-122.338;2023-03-25T09:27:47;102634.69;;;7.28;59.32
70009;BME280;59542;37.950;-122.338;2023-03-25T09:30:13;102642.25;;;7.42;58.20
70009;BME280;59542;37.950;-122.338;2023-03-25T09:32:40;102635.13;;;7.33;57.89
70009;BME280;59542;37.950;-122.338;2023-03-25T09:35:07;102632.31;;;7.34;59.01
70009;BME280;59542;37.950;-122.338;2023-03-25T09:37:33;102626.72;;;7.28;58.84
70009;BME280;59542;37.950;-122.338;2023-03-25T09:39:59;102619.97;;;7.24;59.32
70009;BME280;59542;37.950;-122.338;2023-03-25T09:45:44;102616.47;;;7.23;57.83
70009;BME280;59542;37.950;-122.338;2023-03-25T09:48:32;102611.25;;;7.22;57.88
70009;BME280;59542;37.950;-122.338;2023-03-25T09:51:05;102612.13;;;7.12;58.79
70009;BME280;59542;37.950;-122.338;2023-03-25T09:56:16;102614.63;;;7.14;57.97
70009;BME280;59542;37.950;-122.338;2023-03-25T09:58:46;102601.75;;;7.29;58.19
70009;BME280;59542;37.950;-122.338;2023-03-25T10:04:56;102593.91;;;7.18;58.79
70009;BME280;59542;37.950;-122.338;2023-03-25T10:24:27;102591.09;;;7.09;57.86
70009;BME280;59542;37.950;-122.338;2023-03-25T10:32:24;102594.19;;;6.95;58.31
70009;BME280;59542;37.950;-122.338;2023-03-25T10:34:54;102588.28;;;7.01;57.74
70009;BME280;59542;37.950;-122.338;2023-03-25T10:37:29;102584.22;;;6.97;57.57
70009;BME280;59542;37.950;-122.338;2023-03-25T10:40:34;102593.75;;;6.90;58.00
70009;BME280;59542;37.950;-122.338;2023-03-25T10:45:51;102589.69;;;6.86;58.62
70009;BME280;59542;37.950;-122.338;2023-03-25T10:48:27;102588.00;;;6.85;58.18
70009;BME280;59542;37.950;-122.338;2023-03-25T10:53:29;102582.69;;;6.85;58.09
70009;BME280;59542;37.950;-122.338;2023-03-25T10:56:02;102588.81;;;6.76;58.76
70009;BME280;59542;37.950;-122.338;2023-03-25T10:58:30;102582.22;;;6.70;58.52
70009;BME280;59542;37.950;-122.338;2023-03-25T11:00:59;102580.44;;;6.80;58.03
70009;BME280;59542;37.950;-122.338;2023-03-25T11:03:30;102577.91;;;6.79;58.35
70009;BME280;59542;37.950;-122.338;2023-03-25T11:05:59;102571.88;;;6.67;58.63
70009;BME280;59542;37.950;-122.338;2023-03-25T11:08:25;102574.00;;;6.73;58.32
70009;BME280;59542;37.950;-122.338;2023-03-25T11:10:53;102575.81;;;6.73;57.93
70009;BME280;59542;37.950;-122.338;2023-03-25T11:13:27;102575.38;;;6.68;58.14
70009;BME280;59542;37.950;-122.338;2023-03-25T11:16:00;102577.47;;;6.74;57.69
70009;BME280;59542;37.950;-122.338;2023-03-25T11:18:45;102572.31;;;6.72;58.10
70009;BME280;59542;37.950;-122.338;2023-03-25T11:21:13;102575.09;;;6.61;58.03
70009;BME280;59542;37.950;-122.338;2023-03-25T11:23:46;102568.34;;;6.57;58.59
70009;BME280;59542;37.950;-122.338;2023-03-25T11:26:29;102578.44;;;6.63;58.77
70009;BME280;59542;37.950;-122.338;2023-03-25T11:29:18;102570.03;;;6.58;57.81
70009;BME280;59542;37.950;-122.338;2023-03-25T11:32:10;102574.22;;;6.51;57.64
70009;BME280;59542;37.950;-122.338;2023-03-25T11:34:38;102578.13;;;6.47;58.14
70009;BME280;59542;37.950;-122.338;2023-03-25T11:37:15;102579.09;;;6.36;58.36
70009;BME280;59542;37.950;-122.338;2023-03-25T11:39:51;102579.97;;;6.56;56.81
70009;BME280;59542;37.950;-122.338;2023-03-25T11:42:26;102574.47;;;6.38;57.23
70009;BME280;59542;37.950;-122.338;2023-03-25T11:44:55;102581.91;;;6.44;56.61
70009;BME280;59542;37.950;-122.338;2023-03-25T11:47:35;102583.13;;;6.30;57.61
70009;BME280;59542;37.950;-122.338;2023-03-25T11:50:03;102582.59;;;6.37;57.63
70009;BME280;59542;37.950;-122.338;2023-03-25T11:52:42;102582.19;;;6.41;57.36
70009;BME280;59542;37.950;-122.338;2023-03-25T11:55:19;102585.50;;;6.24;57.83
70009;BME280;59542;37.950;-122.338;2023-03-25T11:57:47;102590.56;;;6.37;58.03
70009;BME280;59542;37.950;-122.338;2023-03-25T12:00:31;102599.66;;;6.34;58.37
70009;BME280;59542;37.950;-122.338;2023-03-25T12:03:00;102601.34;;;6.35;57.56
70009;BME280;59542;37.950;-122.338;2023-03-25T12:05:27;102599.66;;;6.34;56.89
70009;BME280;59542;37.950;-122.338;2023-03-25T12:13:25;102602.44;;;6.23;57.87
70009;BME280;59542;37.950;-122.338;2023-03-25T12:18:36;102594.25;;;6.15;57.96
70009;BME280;59542;37.950;-122.338;2023-03-25T12:26:37;102594.69;;;6.20;58.72
70009;BME280;59542;37.950;-122.338;2023-03-25T12:50:57;102587.25;;;6.14;56.28
70009;BME280;59542;37.950;-122.338;2023-03-25T12:53:42;102583.63;;;6.15;56.03
70009;BME280;59542;37.950;-122.338;2023-03-25T12:56:36;102592.28;;;6.07;56.81
70009;BME280;59542;37.950;-122.338;2023-03-25T13:07:38;102579.53;;;6.01;55.89
70009;BME280;59542;37.950;-122.338;2023-03-25T13:10:19;102582.75;;;6.04;55.77
70009;BME280;59542;37.950;-122.338;2023-03-25T13:12:57;102582.25;;;6.20;55.72
70009;BME280;59542;37.950;-122.338;2023-03-25T13:15:31;102586.13;;;6.06;56.28
70009;BME280;59542;37.950;-122.338;2023-03-25T13:18:21;102583.03;;;6.01;55.34
70009;BME280;59542;37.950;-122.338;2023-03-25T13:23:23;102575.88;;;6.02;55.34
70009;BME280;59542;37.950;-122.338;2023-03-25T13:26:39;102585.81;;;6.00;55.69
70009;BME280;59542;37.950;-122.338;2023-03-25T13:29:04;102580.63;;;5.98;54.76
70009;BME280;59542;37.950;-122.338;2023-03-25T13:31:34;102579.84;;;5.87;55.36
70009;BME280;59542;37.950;-122.338;2023-03-25T13:34:26;102573.97;;;5.83;55.68
70009;BME280;59542;37.950;-122.338;2023-03-25T13:37:13;102576.34;;;5.86;55.59
70009;BME280;59542;37.950;-122.338;2023-03-25T13:45:53;102576.47;;;5.85;55.24
70009;BME280;59542;37.950;-122.338;2023-03-25T13:48:37;102579.53;;;5.80;56.24
70009;BME280;59542;37.950;-122.338;2023-03-25T13:51:06;102580.97;;;5.84;56.11
70009;BME280;59542;37.950;-122.338;2023-03-25T13:53:36;102573.09;;;5.82;55.66
70009;BME280;59542;37.950;-122.338;2023-03-25T13:58:55;102571.69;;;5.78;55.49
70009;BME280;59542;37.950;-122.338;2023-03-25T14:01:44;102575.84;;;5.71;55.58
70009;BME280;59542;37.950;-122.338;2023-03-25T14:06:52;102591.00;;;5.80;55.98
70009;BME280;59542;37.950;-122.338;2023-03-25T14:12:12;102582.44;;;5.77;55.99
70009;BME280;59542;37.950;-122.338;2023-03-25T14:14:45;102581.16;;;5.71;56.37
70009;BME280;59542;37.950;-122.338;2023-03-25T14:17:14;102577.03;;;5.88;55.77
70009;BME280;59542;37.950;-122.338;2023-03-25T14:19:51;102578.38;;;5.73;56.42
70009;BME280;59542;37.950;-122.338;2023-03-25T14:22:31;102581.66;;;5.55;56.80
70009;BME280;59542;37.950;-122.338;2023-03-25T14:25:01;102589.41;;;5.68;56.82
70009;BME280;59542;37.950;-122.338;2023-03-25T14:27:34;102583.88;;;5.60;57.10
70009;BME280;59542;37.950;-122.338;2023-03-25T14:30:05;102584.31;;;5.86;56.38
70009;BME280;59542;37.950;-122.338;2023-03-25T14:32:38;102591.97;;;5.79;56.07
70009;BME280;59542;37.950;-122.338;2023-03-25T14:43:43;102585.00;;;5.78;56.79
70009;BME280;59542;37.950;-122.338;2023-03-25T14:46:16;102594.63;;;5.79;56.39
70009;BME280;59542;37.950;-122.338;2023-03-25T14:49:09;102595.47;;;5.80;56.25
70009;BME280;59542;37.950;-122.338;2023-03-25T14:51:45;102599.75;;;5.92;55.79
70009;BME280;59542;37.950;-122.338;2023-03-25T14:54:32;102604.94;;;5.94;55.96
70009;BME280;59542;37.950;-122.338;2023-03-25T14:57:16;102605.13;;;6.02;55.31
70009;BME280;59542;37.950;-122.338;2023-03-25T14:59:48;102595.41;;;6.22;53.85
70009;BME280;59542;37.950;-122.338;2023-03-25T15:02:22;102600.56;;;6.14;53.51
70009;BME280;59542;37.950;-122.338;2023-03-25T15:10:34;102596.91;;;6.45;52.96
70009;BME280;59542;37.950;-122.338;2023-03-25T15:13:09;102591.00;;;6.42;53.20
70009;BME280;59542;37.950;-122.338;2023-03-25T15:18:11;102592.72;;;6.52;52.12